createdAt,value
2022-09-07T00:01:08.552Z,90.00
2022-09-07T00:03:38.197Z,90.00
2022-09-07T00:06:08.820Z,90.00
2022-09-07T00:08:37.184Z,90.00
2022-09-07T00:11:08.303Z,90.10
2022-09-07T00:13:38.656Z,90.10
2022-09-07T00:16:08.232Z,90.10
2022-09-07T00:18:41.256Z,90.00
2022-09-07T00:21:13.071Z,90.00
2022-09-07T00:23:42.034Z,90.00
2022-09-07T00:26:12.167Z,90.00
2022-09-07T00:28:41.033Z,90.00
2022-09-07T00:31:13.100Z,90.00
2022-09-07T00:33:42.919Z,90.00
2022-09-07T00:36:11.430Z,90.10
2022-09-07T00:38:39.903Z,90.20
2022-09-07T00:41:08.522Z,90.20
2022-09-07T00:43:38.968Z,90.30
2022-09-07T00:46:11.802Z,90.30
2022-09-07T00:48:45.727Z,90.30
2022-09-07T00:51:19.646Z,90.40
2022-09-07T00:53:54.388Z,90.40
2022-09-07T00:56:25.295Z,90.50
2022-09-07T00:58:54.231Z,90.50
2022-09-07T01:01:23.154Z,90.50
2022-09-07T01:03:55.072Z,90.60
2022-09-07T01:06:27.587Z,90.70
2022-09-07T01:08:57.772Z,90.80
2022-09-07T01:11:26.377Z,90.80
2022-09-07T01:13:58.122Z,90.80
2022-09-07T01:16:40.151Z,90.90
2022-09-07T01:19:32.449Z,91.00
2022-09-07T01:22:13.074Z,91.00
2022-09-07T01:24:49.173Z,91.10
2022-09-07T01:27:48.181Z,91.10
2022-09-07T01:30:19.016Z,91.10
2022-09-07T01:33:02.816Z,91.20
2022-09-07T01:35:41.233Z,91.20
2022-09-07T01:38:16.761Z,91.20
2022-09-07T01:40:50.443Z,91.20
2022-09-07T01:43:30.191Z,91.10
2022-09-07T01:46:02.738Z,91.10
2022-09-07T01:48:35.957Z,91.10
2022-09-07T01:51:05.586Z,91.20
2022-09-07T01:53:37.185Z,91.20
2022-09-07T01:56:10.201Z,91.20
2022-09-07T01:58:44.589Z,91.20
2022-09-07T02:01:16.435Z,91.20
2022-09-07T02:03:48.221Z,91.30
2022-09-07T02:06:19.857Z,91.30
2022-09-07T02:08:54.375Z,91.40
2022-09-07T02:11:26.628Z,91.40
2022-09-07T02:14:00.549Z,91.40
2022-09-07T02:16:31.043Z,91.50
2022-09-07T02:19:05.693Z,91.50
2022-09-07T02:21:38.110Z,91.60
2022-09-07T02:24:10.734Z,91.60
2022-09-07T02:26:41.947Z,91.60
2022-09-07T02:29:11.580Z,91.70
2022-09-07T02:31:39.788Z,91.60
2022-09-07T02:34:08.066Z,91.60
2022-09-07T02:36:40.842Z,91.70
2022-09-07T02:39:09.203Z,91.70
2022-09-07T02:41:39.612Z,91.70
2022-09-07T02:44:11.772Z,91.80
2022-09-07T02:46:53.759Z,91.90
2022-09-07T02:49:38.113Z,92.00
2022-09-07T02:52:21.228Z,92.10
2022-09-07T02:55:02.824Z,92.10
2022-09-07T02:57:40.879Z,92.10
2022-09-07T03:00:11.967Z,92.10
2022-09-07T03:02:58.266Z,92.10
2022-09-07T03:05:32.795Z,92.20
2022-09-07T03:08:05.384Z,92.20
2022-09-07T03:10:34.209Z,92.20
2022-09-07T03:13:02.483Z,92.20
2022-09-07T03:15:30.784Z,92.20
2022-09-07T03:18:00.496Z,92.30
2022-09-07T03:20:28.743Z,92.40
2022-09-07T03:22:57.113Z,92.50
2022-09-07T03:25:25.337Z,92.50
2022-09-07T03:27:53.504Z,92.60
2022-09-07T03:30:21.866Z,92.60
2022-09-07T03:32:50.058Z,92.60
2022-09-07T03:35:19.958Z,92.70
2022-09-07T03:37:48.187Z,92.70
2022-09-07T03:40:17.124Z,92.70
2022-09-07T03:42:51.407Z,92.70
2022-09-07T03:45:19.628Z,92.70
2022-09-07T03:47:47.788Z,92.70
2022-09-07T03:50:16.121Z,93.20
2022-09-07T03:52:45.758Z,92.90
2022-09-07T03:55:14.303Z,92.90
2022-09-07T03:57:43.582Z,92.90
2022-09-07T04:00:13.342Z,93.10
2022-09-07T04:02:41.643Z,93.10
2022-09-07T04:05:11.644Z,93.20
2022-09-07T04:07:39.960Z,93.20
2022-09-07T04:10:10.406Z,93.30
2022-09-07T04:12:38.598Z,93.20
2022-09-07T04:15:07.631Z,93.30
2022-09-07T04:17:35.785Z,93.30
2022-09-07T04:20:04.663Z,93.30
2022-09-07T04:22:32.815Z,93.40
2022-09-07T04:25:01.024Z,93.40
2022-09-07T04:27:31.025Z,93.50
2022-09-07T04:29:59.201Z,93.50
2022-09-07T04:32:27.365Z,93.40
2022-09-07T04:34:55.558Z,93.50
2022-09-07T04:37:23.752Z,93.50
2022-09-07T04:39:52.103Z,93.50
2022-09-07T04:42:20.328Z,93.50
2022-09-07T04:44:52.009Z,93.50
2022-09-07T04:47:20.367Z,93.60
2022-09-07T04:49:52.095Z,93.60
2022-09-07T04:52:20.505Z,93.60
2022-09-07T04:54:50.925Z,93.60
2022-09-07T04:57:21.770Z,93.60
2022-09-07T04:59:51.978Z,93.60
2022-09-07T05:02:20.796Z,93.60
2022-09-07T05:04:48.988Z,93.60
2022-09-07T05:07:17.174Z,93.70
2022-09-07T05:09:45.364Z,93.70
2022-09-07T05:12:13.553Z,93.70
2022-09-07T05:14:41.716Z,93.70
2022-09-07T05:17:11.401Z,93.70
2022-09-07T05:19:39.575Z,93.80
2022-09-07T05:22:07.881Z,93.90
2022-09-07T05:24:36.738Z,93.90
2022-09-07T05:27:05.059Z,93.90
2022-09-07T05:32:23.142Z,93.90
2022-09-07T05:34:52.978Z,93.90
2022-09-07T05:37:21.328Z,93.90
2022-09-07T05:39:49.554Z,93.80
2022-09-07T05:42:17.779Z,93.80
2022-09-07T05:44:46.220Z,93.80
2022-09-07T05:47:15.168Z,93.90
2022-09-07T05:49:44.751Z,93.90
2022-09-07T05:52:13.063Z,93.90
2022-09-07T05:54:41.436Z,93.90
2022-09-07T05:57:12.891Z,93.90
2022-09-07T05:59:41.449Z,93.90
2022-09-07T06:02:14.291Z,93.90
2022-09-07T06:04:44.172Z,93.90
2022-09-07T06:07:28.527Z,93.90
2022-09-07T06:12:49.117Z,93.90
2022-09-07T06:15:17.897Z,93.90
2022-09-07T06:17:46.113Z,93.90
2022-09-07T06:20:16.187Z,93.90
2022-09-07T06:22:44.328Z,93.90
2022-09-07T06:25:12.611Z,94.00
2022-09-07T06:27:40.808Z,94.00
2022-09-07T06:30:10.093Z,94.10
2022-09-07T06:35:09.039Z,94.10
2022-09-07T06:37:38.786Z,94.10
2022-09-07T06:40:08.601Z,94.00
2022-09-07T06:42:36.895Z,94.00
2022-09-07T06:45:05.716Z,94.10
2022-09-07T06:47:33.913Z,94.20
2022-09-07T06:50:02.126Z,94.20
2022-09-07T06:55:19.930Z,94.30
2022-09-07T06:57:48.423Z,94.40
2022-09-07T07:00:17.208Z,94.40
2022-09-07T07:02:45.389Z,94.40
2022-09-07T07:05:13.592Z,94.40
2022-09-07T07:07:41.775Z,94.50
2022-09-07T07:10:10.700Z,94.50
2022-09-07T07:15:08.904Z,94.50
2022-09-07T07:17:37.692Z,94.60
2022-09-07T07:20:07.255Z,94.70
2022-09-07T07:22:52.752Z,94.80
2022-09-07T07:25:21.405Z,94.80
2022-09-07T07:27:51.353Z,94.80
2022-09-07T07:30:20.811Z,94.90
2022-09-07T07:32:49.293Z,94.80
2022-09-07T07:35:17.636Z,94.90
2022-09-07T07:37:46.797Z,95.00
2022-09-07T07:40:17.857Z,95.10
2022-09-07T07:42:50.283Z,95.20
2022-09-07T07:48:07.264Z,95.30
2022-09-07T07:50:35.543Z,95.40
2022-09-07T07:55:53.818Z,95.40
2022-09-07T07:58:23.390Z,95.40
2022-09-07T08:00:54.698Z,95.40
2022-09-07T08:03:24.562Z,95.40
2022-09-07T08:05:53.261Z,95.50
2022-09-07T08:08:27.712Z,95.60
2022-09-07T08:10:55.867Z,95.80
2022-09-07T08:13:26.138Z,95.80
2022-09-07T08:15:59.443Z,96.00
2022-09-07T08:18:27.936Z,96.00
2022-09-07T08:21:00.446Z,96.10
2022-09-07T08:23:28.782Z,96.10
2022-09-07T08:25:59.067Z,96.10
2022-09-07T08:28:29.684Z,96.10
2022-09-07T08:30:59.148Z,96.00
2022-09-07T08:33:27.380Z,96.00
2022-09-07T08:35:57.467Z,95.80
2022-09-07T08:38:25.896Z,95.80
2022-09-07T08:40:54.583Z,95.90
2022-09-07T08:43:37.173Z,96.00
2022-09-07T08:46:13.542Z,96.00
2022-09-07T08:48:42.104Z,95.90
2022-09-07T08:51:14.504Z,95.80
2022-09-07T08:53:46.717Z,96.00
2022-09-07T08:56:20.412Z,96.10
2022-09-07T08:58:51.211Z,96.00
2022-09-07T09:01:37.087Z,95.90
2022-09-07T09:04:16.716Z,96.00
2022-09-07T09:06:57.455Z,96.10
2022-09-07T09:09:36.292Z,96.60
2022-09-07T09:12:18.760Z,96.40
2022-09-07T09:15:03.691Z,96.50
2022-09-07T09:17:39.186Z,96.50
2022-09-07T09:20:20.643Z,96.20
2022-09-07T09:22:50.199Z,96.00
2022-09-07T09:25:21.700Z,96.10
2022-09-07T09:27:50.724Z,96.10
2022-09-07T09:30:22.403Z,96.20
2022-09-07T09:32:52.931Z,96.20
2022-09-07T09:35:32.669Z,96.20
2022-09-07T09:38:03.689Z,96.10
2022-09-07T09:40:33.419Z,96.00
2022-09-07T09:43:04.124Z,96.00
2022-09-07T09:48:33.213Z,95.70
2022-09-07T09:53:56.554Z,95.80
2022-09-07T09:56:37.416Z,95.80
2022-09-07T10:05:27.514Z,96.10
2022-09-07T10:07:56.385Z,96.20
2022-09-07T10:10:28.021Z,96.20
2022-09-07T10:12:56.823Z,96.30
2022-09-07T10:15:40.085Z,96.20
2022-09-07T10:18:21.385Z,96.30
2022-09-07T10:20:49.972Z,96.40
2022-09-07T10:23:23.250Z,96.20
2022-09-07T10:25:51.960Z,96.10
2022-09-07T10:28:21.798Z,96.20
2022-09-07T10:31:11.025Z,96.20
2022-09-07T10:36:45.700Z,96.20
2022-09-07T10:39:18.363Z,96.10
2022-09-07T10:41:54.631Z,95.90
2022-09-07T10:44:36.648Z,95.80
2022-09-07T10:47:16.813Z,96.00
2022-09-07T10:52:49.641Z,95.90
2022-09-07T10:55:26.366Z,95.80
2022-09-07T10:58:06.572Z,95.80
2022-09-07T11:00:42.223Z,95.80
2022-09-07T11:03:29.980Z,95.80
2022-09-07T11:06:11.794Z,95.90
2022-09-07T11:12:01.589Z,95.70
2022-09-07T11:14:34.039Z,95.60
2022-09-07T11:17:05.194Z,95.50
2022-09-07T11:19:38.646Z,95.20
2022-09-07T11:22:18.539Z,95.10
2022-09-07T11:27:45.828Z,95.10
2022-09-07T11:30:21.033Z,95.40
2022-09-07T11:32:59.596Z,95.40
2022-09-07T11:35:43.122Z,95.30
2022-09-07T11:38:19.780Z,95.20
2022-09-07T11:40:59.671Z,94.90
2022-09-07T11:43:32.574Z,94.70
2022-09-07T11:46:05.219Z,94.80
2022-09-07T11:48:38.112Z,94.90
2022-09-07T11:51:11.696Z,95.10
2022-09-07T11:53:45.744Z,95.10
2022-09-07T11:56:19.129Z,95.10
2022-09-07T11:59:11.456Z,95.30
2022-09-07T12:01:50.008Z,95.40
2022-09-07T12:04:35.980Z,95.50
2022-09-07T12:07:36.328Z,95.50
2022-09-07T12:10:27.184Z,95.50
2022-09-07T12:13:12.493Z,95.40
2022-09-07T12:15:52.428Z,95.40
2022-09-07T12:18:33.695Z,95.10
2022-09-07T12:21:01.867Z,95.10
2022-09-07T12:23:32.853Z,95.20
2022-09-07T12:26:34.568Z,95.30
2022-09-07T12:29:21.366Z,95.40
2022-09-07T12:31:59.777Z,95.60
2022-09-07T12:34:48.274Z,95.80
2022-09-07T12:37:38.686Z,95.70
2022-09-07T12:40:45.331Z,95.70
2022-09-07T12:43:56.746Z,95.70
2022-09-07T12:46:46.768Z,95.60
2022-09-07T12:49:45.220Z,95.50
2022-09-07T12:52:48.546Z,95.40
2022-09-07T12:58:54.179Z,95.30
2022-09-07T13:01:35.019Z,95.40
2022-09-07T13:04:43.832Z,95.30
2022-09-07T13:07:35.033Z,95.30
2022-09-07T13:10:05.815Z,95.20
2022-09-07T13:12:54.873Z,95.20
2022-09-07T13:15:41.208Z,95.20
2022-09-07T13:18:15.284Z,95.20
2022-09-07T13:20:44.711Z,95.20
2022-09-07T13:23:23.232Z,95.30
2022-09-07T13:25:54.294Z,95.40
2022-09-07T13:28:32.965Z,95.50
2022-09-07T13:31:18.023Z,95.50
2022-09-07T13:33:51.139Z,95.50
2022-09-07T13:36:28.926Z,95.60
2022-09-07T13:38:57.681Z,95.70
2022-09-07T13:41:30.693Z,95.80
2022-09-07T13:44:01.846Z,95.80
2022-09-07T13:46:42.122Z,95.90
2022-09-07T13:49:20.858Z,95.90
2022-09-07T13:51:55.653Z,95.80
2022-09-07T13:54:32.140Z,95.50
2022-09-07T13:57:16.906Z,95.30
2022-09-07T13:59:46.088Z,95.10
2022-09-07T14:02:23.382Z,95.30
2022-09-07T14:04:54.925Z,95.40
2022-09-07T14:07:25.908Z,95.40
2022-09-07T14:10:07.864Z,95.30
2022-09-07T14:12:43.766Z,95.00
2022-09-07T14:15:19.932Z,94.90
2022-09-07T14:17:48.504Z,94.90
2022-09-07T14:20:18.615Z,95.00
2022-09-07T14:22:53.025Z,95.40
2022-09-07T14:25:22.877Z,95.00
2022-09-07T14:27:51.368Z,95.00
2022-09-07T14:30:26.609Z,95.10
2022-09-07T14:32:57.186Z,95.20
2022-09-07T14:35:28.387Z,95.40
2022-09-07T14:38:05.835Z,95.50
2022-09-07T14:40:34.556Z,95.50
2022-09-07T14:43:02.753Z,95.50
2022-09-07T14:45:36.223Z,95.50
2022-09-07T14:48:16.248Z,95.50
2022-09-07T14:51:05.461Z,95.40
2022-09-07T14:53:39.139Z,95.20
2022-09-07T14:56:10.961Z,95.20
2022-09-07T14:58:39.073Z,95.20
2022-09-07T15:04:19.545Z,95.30
2022-09-07T15:07:03.530Z,95.30
2022-09-07T15:09:38.421Z,95.30
2022-09-07T15:12:19.013Z,95.30
2022-09-07T15:14:48.270Z,95.40
2022-09-07T15:20:36.024Z,95.40
2022-09-07T15:23:06.029Z,95.50
2022-09-07T15:25:36.434Z,95.60
2022-09-07T15:28:05.204Z,95.80
2022-09-07T15:30:33.883Z,95.80
2022-09-07T15:33:01.986Z,95.80
2022-09-07T15:35:30.924Z,95.80
2022-09-07T15:38:04.633Z,95.70
2022-09-07T15:40:51.528Z,95.70
2022-09-07T15:43:29.578Z,95.80
2022-09-07T15:45:57.808Z,95.70
2022-09-07T15:48:26.774Z,95.50
2022-09-07T15:51:03.683Z,95.30
2022-09-07T15:56:23.644Z,95.00
2022-09-07T15:58:53.444Z,94.90
2022-09-07T16:04:14.879Z,94.80
2022-09-07T16:06:43.478Z,94.80
2022-09-07T16:09:11.549Z,94.60
2022-09-07T16:11:40.983Z,94.50
2022-09-07T16:14:11.812Z,94.40
2022-09-07T16:19:27.957Z,94.80
2022-09-07T16:21:57.575Z,94.60
2022-09-07T16:24:27.892Z,94.70
2022-09-07T16:26:57.356Z,94.80
2022-09-07T16:29:25.389Z,94.90
2022-09-07T16:34:42.045Z,95.10
2022-09-07T16:37:10.188Z,95.10
2022-09-07T16:39:38.295Z,95.10
2022-09-07T16:42:08.969Z,95.20
2022-09-07T16:44:37.197Z,95.40
2022-09-07T16:47:05.499Z,95.40
2022-09-07T16:49:33.739Z,95.60
2022-09-07T16:52:01.769Z,95.70
2022-09-07T16:54:29.824Z,95.70
2022-09-07T16:56:58.099Z,95.70
2022-09-07T16:59:27.723Z,95.70
2022-09-07T17:01:56.562Z,95.70
2022-09-07T17:04:24.846Z,95.70
2022-09-07T17:06:54.545Z,95.70
2022-09-07T17:09:26.519Z,95.70
2022-09-07T17:11:54.585Z,95.70
2022-09-07T17:14:22.710Z,95.70
2022-09-07T17:16:52.207Z,95.70
2022-09-07T17:19:29.721Z,95.70
2022-09-07T17:21:59.808Z,95.70
2022-09-07T17:24:28.118Z,95.80
2022-09-07T17:26:56.735Z,95.90
2022-09-07T17:29:30.470Z,95.80
2022-09-07T17:34:51.328Z,95.80
2022-09-07T17:37:19.819Z,95.80
2022-09-07T17:39:47.972Z,95.90
2022-09-07T17:42:16.930Z,95.90
2022-09-07T17:44:45.058Z,96.00
2022-09-07T17:47:14.600Z,96.00
2022-09-07T17:49:42.911Z,96.00
2022-09-07T17:52:10.960Z,96.00
2022-09-07T17:54:39.548Z,96.10
2022-09-07T17:57:07.605Z,96.20
2022-09-07T18:02:25.168Z,96.30
2022-09-07T18:04:53.270Z,96.30
2022-09-07T18:07:21.428Z,96.30
2022-09-07T18:09:49.446Z,96.40
2022-09-07T18:12:17.489Z,96.50
2022-09-07T18:14:45.520Z,96.70
2022-09-07T18:17:13.591Z,96.80
2022-09-07T18:19:43.205Z,96.90
2022-09-07T18:22:11.285Z,97.10
2022-09-07T18:24:39.496Z,97.10
2022-09-07T18:27:07.956Z,97.30
2022-09-07T18:29:36.177Z,97.40
2022-09-07T18:32:08.450Z,97.50
2022-09-07T18:34:37.552Z,97.60
2022-09-07T18:37:08.301Z,97.80
2022-09-07T18:39:36.787Z,97.90
2022-09-07T18:42:05.178Z,98.00
2022-09-07T18:47:27.827Z,98.20
2022-09-07T18:49:56.988Z,98.30
2022-09-07T18:55:15.105Z,98.50
2022-09-07T18:57:43.558Z,98.50
2022-09-07T19:00:13.969Z,98.60
2022-09-07T19:02:42.565Z,98.60
2022-09-07T19:08:03.413Z,98.70
2022-09-07T19:10:34.106Z,98.70
2022-09-07T19:13:02.649Z,98.70
2022-09-07T19:15:36.833Z,98.70
2022-09-07T19:18:06.675Z,98.80
2022-09-07T19:20:36.104Z,98.80
2022-09-07T19:23:05.618Z,98.80
2022-09-07T19:25:33.730Z,98.80
2022-09-07T19:28:01.784Z,99.20
2022-09-07T19:30:30.454Z,98.90
2022-09-07T19:33:03.395Z,99.00
2022-09-07T19:35:36.180Z,99.00
2022-09-07T19:38:05.699Z,99.10
2022-09-07T19:40:33.799Z,99.20
2022-09-07T19:43:01.879Z,99.20
2022-09-07T19:45:29.989Z,99.30
2022-09-07T19:47:58.446Z,99.30
2022-09-07T19:50:26.555Z,99.30
2022-09-07T19:52:54.633Z,99.50
2022-09-07T19:55:24.120Z,99.60
2022-09-07T19:57:52.566Z,99.70
2022-09-07T20:00:20.721Z,99.70
2022-09-07T20:02:50.237Z,99.80
2022-09-07T20:05:18.572Z,99.90
2022-09-07T20:07:46.684Z,99.90
2022-09-07T20:10:14.764Z,99.90
2022-09-07T20:12:44.243Z,99.80
2022-09-07T20:15:12.509Z,99.80
2022-09-07T20:17:40.557Z,99.80
2022-09-07T20:20:09.748Z,99.70
2022-09-07T20:22:37.837Z,99.70
2022-09-07T20:25:09.234Z,99.60
2022-09-07T20:27:40.831Z,99.60
2022-09-07T20:30:11.968Z,99.50
2022-09-07T20:32:40.229Z,99.50
2022-09-07T20:35:08.778Z,99.50
2022-09-07T20:37:36.922Z,99.30
2022-09-07T20:40:06.456Z,99.20
2022-09-07T20:42:34.627Z,99.10
2022-09-07T20:45:03.323Z,99.00
2022-09-07T20:47:32.768Z,98.90
2022-09-07T20:50:00.910Z,98.80
2022-09-07T20:52:28.981Z,98.70
2022-09-07T20:54:57.154Z,98.60
2022-09-07T20:57:25.786Z,98.50
2022-09-07T20:59:53.929Z,98.30
2022-09-07T21:02:22.111Z,98.20
2022-09-07T21:04:51.657Z,98.10
2022-09-07T21:07:19.727Z,98.00
2022-09-07T21:09:47.779Z,97.90
2022-09-07T21:12:15.908Z,97.90
2022-09-07T21:14:45.576Z,97.80
2022-09-07T21:17:13.593Z,97.80
2022-09-07T21:19:41.702Z,97.70
2022-09-07T21:22:11.136Z,97.60
2022-09-07T21:24:39.298Z,97.60
2022-09-07T21:27:07.793Z,97.60
2022-09-07T21:29:35.916Z,97.50
2022-09-07T21:32:04.421Z,97.50
2022-09-07T21:34:32.530Z,97.50
2022-09-07T21:37:00.857Z,97.50
2022-09-07T21:39:30.377Z,97.40
2022-09-07T21:41:58.496Z,97.50
2022-09-07T21:44:26.562Z,97.50
2022-09-07T21:46:54.729Z,97.50
2022-09-07T21:49:22.970Z,97.40
2022-09-07T21:51:51.043Z,97.40
2022-09-07T21:54:19.107Z,97.40
2022-09-07T21:56:48.923Z,97.40
2022-09-07T21:59:16.968Z,97.40
2022-09-07T22:01:45.177Z,97.40
2022-09-07T22:04:13.642Z,97.30
2022-09-07T22:06:43.948Z,97.30
2022-09-07T22:09:12.221Z,97.30
2022-09-07T22:11:42.992Z,97.30
2022-09-07T22:14:16.570Z,97.20
2022-09-07T22:16:44.686Z,97.10
2022-09-07T22:19:12.850Z,97.00
2022-09-07T22:21:40.907Z,97.00
2022-09-07T22:24:09.087Z,97.00
2022-09-07T22:26:38.699Z,96.90
2022-09-07T22:29:08.203Z,96.90
2022-09-07T22:31:39.212Z,96.90
2022-09-07T22:34:09.500Z,96.90
2022-09-07T22:36:39.373Z,96.80
2022-09-07T22:39:11.395Z,96.70
2022-09-07T22:41:40.545Z,97.00
2022-09-07T22:44:11.446Z,96.70
2022-09-07T22:46:43.499Z,96.70
2022-09-07T22:49:13.072Z,96.70
2022-09-07T22:51:41.188Z,96.70
2022-09-07T22:54:09.695Z,96.60
2022-09-07T22:56:38.378Z,96.60
2022-09-07T22:59:08.702Z,96.50
2022-09-07T23:01:37.647Z,96.50
2022-09-07T23:04:07.707Z,96.50
2022-09-07T23:06:37.247Z,96.40
2022-09-07T23:09:07.923Z,96.40
2022-09-07T23:11:36.078Z,96.40
2022-09-07T23:14:06.733Z,96.50
2022-09-07T23:16:34.935Z,96.40
2022-09-07T23:19:03.131Z,96.40
2022-09-07T23:21:32.888Z,96.40
2022-09-07T23:24:01.460Z,96.30
2022-09-07T23:26:31.151Z,96.30
2022-09-07T23:29:01.119Z,96.30
2022-09-07T23:31:30.477Z,96.30
2022-09-07T23:33:59.093Z,96.30
2022-09-07T23:36:27.339Z,96.20
2022-09-07T23:38:58.478Z,96.20
2022-09-07T23:41:27.148Z,96.20
2022-09-07T23:43:55.834Z,96.20
2022-09-07T23:46:24.377Z,96.20
2022-09-07T23:48:52.720Z,96.10
2022-09-07T23:51:24.145Z,96.10
2022-09-07T23:53:53.022Z,96.20
2022-09-07T23:56:24.549Z,96.10
2022-09-07T23:58:52.924Z,96.10
